Time;durP1;ratioP1;P1;durP2;ratioP2;P2;SDS_P1;SDS_P2;PMS_P1;PMS_P2;Temp;Humidity;BMP_temperature;BMP_pressure;BME280_temperature;BME280_humidity;BME280_pressure;Samples;Min_cycle;Max_cycle;Signal;HPM_P1;HPM_P2
2022/08/31 00:06:04;;;;;;;2.97;0.70;;;16.10;99.90;;;;;;7396417;19;20015;-81
2022/08/31 00:08:31;;;;;;;1.33;0.60;;;16.00;99.90;;;;;;7395334;19;20011;-80
2022/08/31 00:10:58;;;;;;;1.67;0.40;;;16.00;99.90;;;;;;7395738;19;20015;-80
2022/08/31 00:13:25;;;;;;;1.88;0.60;;;15.90;99.90;;;;;;7393911;19;20006;-79
2022/08/31 00:15:53;;;;;;;0.85;0.40;;;15.70;99.90;;;;;;7393917;19;20030;-80
2022/08/31 00:18:19;;;;;;;1.17;0.40;;;15.70;99.90;;;;;;7397839;19;20021;-80
2022/08/31 00:20:46;;;;;;;0.75;0.47;;;15.60;99.90;;;;;;7393955;19;20019;-80
2022/08/31 00:23:14;;;;;;;0.85;0.30;;;15.50;99.90;;;;;;7396196;19;20015;-80
2022/08/31 00:25:44;;;;;;;1.33;0.47;;;15.60;99.90;;;;;;7389698;19;20026;-80
2022/08/31 00:28:10;;;;;;;1.45;0.65;;;15.50;99.90;;;;;;7394815;19;20034;-80
2022/08/31 00:30:37;;;;;;;1.60;0.47;;;15.40;99.90;;;;;;7394774;19;20077;-79
2022/08/31 00:33:04;;;;;;;3.85;0.60;;;15.30;99.90;;;;;;7392703;19;20341;-79
2022/08/31 00:35:32;;;;;;;2.22;0.40;;;15.30;99.90;;;;;;7397661;19;20014;-80
2022/08/31 00:37:58;;;;;;;1.40;0.40;;;15.30;99.90;;;;;;7393949;19;20074;-80
2022/08/31 00:40:25;;;;;;;1.48;0.50;;;15.20;99.90;;;;;;7395221;19;20045;-79
2022/08/31 00:42:51;;;;;;;1.05;0.47;;;15.10;99.90;;;;;;7395584;19;20475;-80
2022/08/31 00:45:17;;;;;;;2.00;0.50;;;15.00;99.90;;;;;;7396291;19;20453;-80
2022/08/31 00:47:43;;;;;;;1.48;0.70;;;15.00;99.90;;;;;;7395605;19;20041;-80
2022/08/31 00:50:12;;;;;;;0.73;0.50;;;14.90;99.90;;;;;;7395816;19;20018;-80
2022/08/31 00:52:41;;;;;;;3.22;0.70;;;15.10;99.90;;;;;;7396153;19;20136;-80
2022/08/31 00:55:21;;;;;;;2.25;0.60;;;15.20;99.90;;;;;;7396501;19;20026;-80
2022/08/31 00:57:51;;;;;;;2.05;0.65;;;15.20;99.90;;;;;;7397081;19;20023;-79
2022/08/31 01:00:22;;;;;;;1.92;0.60;;;15.00;99.90;;;;;;7395335;19;20025;-79
2022/08/31 01:02:48;;;;;;;0.80;0.65;;;14.80;99.90;;;;;;7393841;19;20031;-80
2022/08/31 01:05:15;;;;;;;2.60;0.70;;;14.70;99.90;;;;;;7395566;19;20346;-79
2022/08/31 01:07:46;;;;;;;1.23;0.60;;;14.70;99.90;;;;;;7393135;19;20484;-80
2022/08/31 01:10:13;;;;;;;1.58;0.68;;;14.60;99.90;;;;;;7394533;19;20015;-79
2022/08/31 01:12:43;;;;;;;2.00;0.60;;;14.50;99.90;;;;;;7394533;19;20034;-79
2022/08/31 01:15:10;;;;;;;1.10;0.40;;;14.40;99.90;;;;;;7393714;19;20015;-80
2022/08/31 01:17:37;;;;;;;1.42;0.52;;;14.40;99.90;;;;;;7391636;19;20422;-79
2022/08/31 01:20:26;;;;;;;1.30;0.40;;;14.40;99.90;;;;;;7393355;19;20082;-79
2022/08/31 01:23:00;;;;;;;1.38;0.50;;;14.40;99.90;;;;;;7395019;19;20022;-79
2022/08/31 01:25:26;;;;;;;1.13;0.35;;;14.40;99.90;;;;;;7391218;19;20018;-79
2022/08/31 01:27:53;;;;;;;1.15;0.30;;;14.40;99.90;;;;;;7392752;19;20048;-79
2022/08/31 01:30:24;;;;;;;2.13;0.47;;;14.30;99.90;;;;;;7392823;19;20453;-79
2022/08/31 01:32:51;;;;;;;1.70;0.50;;;14.20;99.90;;;;;;7394134;19;20049;-79
2022/08/31 01:35:17;;;;;;;0.93;0.50;;;14.10;99.90;;;;;;7390865;19;20021;-79
2022/08/31 01:37:43;;;;;;;1.48;0.60;;;14.10;99.90;;;;;;7392175;19;20022;-79
2022/08/31 01:40:10;;;;;;;1.23;0.50;;;14.20;99.90;;;;;;7387313;19;20031;-80
2022/08/31 01:42:36;;;;;;;0.68;0.50;;;14.10;99.90;;;;;;7390386;19;20370;-79
2022/08/31 01:45:04;;;;;;;2.13;0.70;;;14.10;99.90;;;;;;7390651;19;20022;-80
2022/08/31 01:47:30;;;;;;;2.28;0.60;;;14.10;99.90;;;;;;7395087;19;20015;-79
2022/08/31 01:49:56;;;;;;;1.27;0.70;;;14.00;99.90;;;;;;7393650;19;20086;-80
2022/08/31 01:52:21;;;;;;;1.88;0.50;;;14.00;99.90;;;;;;7392237;19;20018;-79
2022/08/31 01:54:47;;;;;;;1.10;0.60;;;14.00;99.90;;;;;;7390290;19;20366;-79
2022/08/31 01:57:14;;;;;;;1.17;0.60;;;14.00;99.90;;;;;;7393285;19;20014;-84
2022/08/31 01:59:40;;;;;;;2.80;0.60;;;14.00;99.90;;;;;;7387698;19;20019;-79
2022/08/31 02:02:06;;;;;;;1.10;0.50;;;14.10;99.90;;;;;;7396647;19;20370;-79
2022/08/31 02:04:32;;;;;;;1.27;0.52;;;14.00;99.90;;;;;;7391301;19;20028;-79
2022/08/31 02:07:00;;;;;;;1.00;0.50;;;14.00;99.90;;;;;;7395713;19;20026;-79
2022/08/31 02:09:28;;;;;;;1.50;0.60;;;13.90;99.90;;;;;;7393454;19;20029;-79
2022/08/31 02:11:55;;;;;;;1.00;0.60;;;14.00;99.90;;;;;;7392302;19;20021;-79
2022/08/31 02:14:21;;;;;;;1.70;0.70;;;14.00;99.90;;;;;;7389635;19;20361;-79
2022/08/31 02:16:48;;;;;;;1.10;0.77;;;14.00;99.90;;;;;;7395744;19;20014;-79
2022/08/31 02:19:14;;;;;;;1.48;0.80;;;13.90;99.90;;;;;;7395078;19;20010;-79
2022/08/31 02:21:40;;;;;;;1.45;0.47;;;13.90;99.90;;;;;;7391011;19;20573;-79
2022/08/31 02:24:07;;;;;;;2.35;0.82;;;13.90;99.90;;;;;;7392205;19;20019;-81
2022/08/31 02:26:33;;;;;;;1.50;0.60;;;14.00;99.90;;;;;;7391448;19;20066;-79
2022/08/31 02:28:59;;;;;;;2.45;0.80;;;14.00;99.90;;;;;;7391953;19;20020;-79
2022/08/31 02:31:25;;;;;;;1.27;0.70;;;13.90;99.90;;;;;;7387786;19;20078;-80
2022/08/31 02:33:51;;;;;;;2.28;0.60;;;14.00;99.90;;;;;;7391351;19;20015;-79
2022/08/31 02:36:17;;;;;;;0.93;0.60;;;14.00;99.90;;;;;;7393012;19;20021;-80
2022/08/31 02:38:42;;;;;;;1.02;0.65;;;13.90;99.90;;;;;;7394613;19;20011;-80
2022/08/31 02:41:08;;;;;;;1.10;0.65;;;13.90;99.90;;;;;;7391469;19;20023;-79
2022/08/31 02:43:34;;;;;;;1.90;0.60;;;13.80;99.90;;;;;;7389584;19;20094;-79
2022/08/31 02:46:00;;;;;;;1.15;0.65;;;13.80;99.90;;;;;;7393113;19;20018;-79
2022/08/31 02:48:26;;;;;;;1.65;0.68;;;13.70;99.90;;;;;;7393595;19;20090;-79
2022/08/31 02:50:52;;;;;;;0.77;0.65;;;13.70;99.90;;;;;;7395492;19;20018;-79
2022/08/31 02:53:21;;;;;;;1.13;0.70;;;13.70;99.90;;;;;;7397966;19;20007;-79
2022/08/31 02:55:47;;;;;;;1.42;0.70;;;13.60;99.90;;;;;;7399316;19;20414;-79
2022/08/31 02:58:13;;;;;;;4.43;2.85;;;13.40;99.90;;;;;;7397829;19;20040;-79
2022/08/31 03:00:44;;;;;;;2.53;1.63;;;13.40;99.90;;;;;;7398551;19;20014;-79
2022/08/31 03:03:10;;;;;;;1.80;0.85;;;13.30;99.90;;;;;;7395253;19;20399;-79
2022/08/31 03:05:36;;;;;;;1.20;0.70;;;13.20;99.90;;;;;;7396383;19;20107;-79
2022/08/31 03:08:02;;;;;;;2.67;0.65;;;13.20;99.90;;;;;;7398914;19;20018;-79
2022/08/31 03:10:29;;;;;;;1.90;0.93;;;13.20;99.90;;;;;;7396828;19;20006;-79
2022/08/31 03:12:55;;;;;;;0.93;0.70;;;13.10;99.90;;;;;;7399735;19;20017;-79
2022/08/31 03:15:23;;;;;;;3.95;0.90;;;13.10;99.90;;;;;;7397799;19;20050;-79
2022/08/31 03:17:49;;;;;;;1.55;0.70;;;13.10;99.90;;;;;;7397626;19;20022;-79
2022/08/31 03:20:17;;;;;;;1.08;0.80;;;13.00;99.90;;;;;;7397540;19;20495;-79
2022/08/31 03:22:42;;;;;;;1.35;0.80;;;12.90;99.90;;;;;;7395306;19;20018;-79
2022/08/31 03:25:09;;;;;;;1.17;0.77;;;12.90;99.90;;;;;;7397380;19;20015;-79
2022/08/31 03:27:36;;;;;;;2.72;0.88;;;12.80;99.90;;;;;;7397018;19;20022;-79
2022/08/31 03:30:06;;;;;;;1.02;0.70;;;12.70;99.90;;;;;;7394064;19;20014;-79
2022/08/31 03:32:32;;;;;;;1.13;0.90;;;12.70;99.90;;;;;;7396805;19;20029;-79
2022/08/31 03:34:59;;;;;;;1.85;0.65;;;12.70;99.90;;;;;;7397335;19;20006;-79
2022/08/31 03:37:26;;;;;;;2.35;0.90;;;12.60;99.90;;;;;;7395144;19;20026;-79
2022/08/31 03:39:52;;;;;;;1.23;0.98;;;12.50;99.90;;;;;;7398737;19;20015;-79
2022/08/31 03:42:18;;;;;;;0.90;0.70;;;12.50;99.90;;;;;;7398496;19;20479;-79
2022/08/31 03:44:46;;;;;;;2.03;0.90;;;12.50;99.90;;;;;;7396515;19;20028;-79
2022/08/31 03:47:12;;;;;;;2.67;0.98;;;12.50;99.90;;;;;;7394339;19;20380;-79
2022/08/31 03:49:39;;;;;;;1.88;0.80;;;12.50;99.90;;;;;;7396592;19;20042;-79
2022/08/31 03:52:05;;;;;;;2.05;0.88;;;12.50;99.90;;;;;;7394252;19;20024;-79
2022/08/31 03:54:31;;;;;;;1.80;0.80;;;12.50;99.90;;;;;;7398040;19;20048;-79
2022/08/31 03:56:57;;;;;;;1.58;0.90;;;12.50;99.90;;;;;;7396678;19;20011;-79
2022/08/31 03:59:23;;;;;;;2.05;0.95;;;12.50;99.90;;;;;;7398167;19;20014;-79
2022/08/31 04:01:49;;;;;;;1.55;1.02;;;12.40;99.90;;;;;;7393767;19;20015;-79
2022/08/31 04:04:15;;;;;;;3.25;0.95;;;12.40;99.90;;;;;;7393242;19;20018;-79
2022/08/31 04:06:42;;;;;;;2.28;0.90;;;12.40;99.90;;;;;;7395935;19;20043;-79
2022/08/31 04:09:08;;;;;;;1.85;1.10;;;12.40;99.90;;;;;;7394679;19;20029;-79
2022/08/31 04:11:37;;;;;;;2.80;1.10;;;12.40;99.90;;;;;;7393487;19;20011;-79
2022/08/31 04:14:02;;;;;;;1.15;0.95;;;12.40;99.90;;;;;;7397263;19;20029;-79
2022/08/31 04:16:31;;;;;;;3.10;1.20;;;12.40;99.90;;;;;;7398198;19;20007;-79
2022/08/31 04:18:56;;;;;;;1.48;0.90;;;12.30;99.90;;;;;;7394059;19;20018;-79
2022/08/31 04:21:24;;;;;;;1.40;0.93;;;12.30;99.90;;;;;;7394036;19;20018;-79
2022/08/31 04:23:51;;;;;;;1.40;0.98;;;12.20;99.90;;;;;;7394955;19;20010;-79
2022/08/31 04:26:24;;;;;;;1.23;1.00;;;12.30;99.90;;;;;;7395125;19;20035;-79
2022/08/31 04:28:51;;;;;;;1.77;1.00;;;12.20;99.90;;;;;;7398289;19;20021;-79
2022/08/31 04:31:19;;;;;;;2.13;1.10;;;12.30;99.90;;;;;;7390990;19;20014;-79
2022/08/31 04:33:45;;;;;;;1.35;1.10;;;12.30;99.90;;;;;;7399344;19;20049;-79
2022/08/31 04:36:14;;;;;;;2.35;1.20;;;12.30;99.90;;;;;;7395136;19;20011;-79
2022/08/31 04:38:44;;;;;;;2.45;1.20;;;12.20;99.90;;;;;;7396576;19;20022;-79
2022/08/31 04:41:13;;;;;;;3.50;1.10;;;12.20;99.90;;;;;;7398197;19;20015;-79
2022/08/31 04:43:43;;;;;;;2.17;1.10;;;12.20;99.90;;;;;;7397705;19;20014;-79
2022/08/31 04:46:09;;;;;;;3.15;1.30;;;12.20;99.90;;;;;;7395527;19;20014;-79
2022/08/31 04:48:35;;;;;;;3.10;1.45;;;12.20;99.90;;;;;;7396292;19;20115;-79
2022/08/31 04:51:07;;;;;;;1.58;1.40;;;12.20;99.90;;;;;;7392993;19;20031;-78
2022/08/31 04:53:35;;;;;;;2.20;1.23;;;12.20;99.90;;;;;;7397063;19;20015;-79
2022/08/31 04:56:13;;;;;;;1.92;1.27;;;12.10;99.90;;;;;;7393644;19;20022;-79
2022/08/31 04:58:40;;;;;;;2.42;1.08;;;12.20;99.90;;;;;;7397304;19;20364;-79
2022/08/31 05:01:11;;;;;;;2.63;1.33;;;12.20;99.90;;;;;;7394253;19;20011;-79
2022/08/31 05:03:39;;;;;;;1.55;1.10;;;12.20;99.90;;;;;;7394868;19;20011;-79
2022/08/31 05:06:10;;;;;;;1.73;1.10;;;12.20;99.90;;;;;;7394682;19;20472;-79
2022/08/31 05:08:36;;;;;;;2.42;1.17;;;12.20;99.90;;;;;;7397028;19;20082;-79
2022/08/31 05:11:15;;;;;;;3.88;1.58;;;12.20;99.90;;;;;;7390829;19;20007;-79
2022/08/31 05:13:42;;;;;;;2.08;1.15;;;12.20;99.90;;;;;;7393970;19;20081;-79
2022/08/31 05:16:11;;;;;;;2.58;1.10;;;12.20;99.90;;;;;;7396161;19;20022;-79
2022/08/31 05:18:39;;;;;;;3.17;1.30;;;12.20;99.90;;;;;;7393877;19;20488;-79
2022/08/31 05:21:18;;;;;;;1.83;1.20;;;12.20;99.90;;;;;;7390893;19;20483;-79
2022/08/31 05:23:46;;;;;;;2.22;1.33;;;12.30;99.90;;;;;;7394643;19;20082;-79
2022/08/31 05:26:21;;;;;;;1.80;1.40;;;12.30;99.90;;;;;;7395303;19;20070;-79
2022/08/31 05:28:47;;;;;;;2.08;1.48;;;12.30;99.90;;;;;;7391599;19;20475;-79
2022/08/31 05:31:14;;;;;;;2.78;1.15;;;12.40;99.90;;;;;;7390308;19;20038;-79
2022/08/31 05:33:41;;;;;;;2.13;1.33;;;12.40;99.90;;;;;;7393714;19;20018;-79
2022/08/31 05:36:07;;;;;;;2.35;1.00;;;12.40;99.90;;;;;;7396243;19;20023;-79
2022/08/31 05:38:34;;;;;;;1.55;1.00;;;12.40;99.90;;;;;;7395626;19;20052;-79
2022/08/31 05:41:00;;;;;;;2.03;1.20;;;12.40;99.90;;;;;;7393164;19;20022;-79
2022/08/31 05:43:27;;;;;;;2.72;1.13;;;12.50;99.90;;;;;;7392016;19;20018;-79
2022/08/31 05:45:53;;;;;;;5.10;1.33;;;12.60;99.90;;;;;;7395940;19;20007;-79
2022/08/31 05:48:21;;;;;;;1.67;1.30;;;12.70;99.90;;;;;;7392687;19;20010;-79
2022/08/31 05:50:47;;;;;;;1.63;1.38;;;12.80;99.90;;;;;;7393345;19;20015;-79
2022/08/31 05:53:13;;;;;;;2.53;1.52;;;12.80;99.90;;;;;;7391006;19;20044;-79
2022/08/31 05:55:39;;;;;;;1.58;1.20;;;12.80;99.90;;;;;;7391962;19;20014;-79
2022/08/31 05:58:05;;;;;;;1.95;1.23;;;12.90;99.90;;;;;;7394444;19;20018;-79
2022/08/31 06:00:31;;;;;;;3.05;1.13;;;12.90;99.90;;;;;;7392363;19;20014;-79
2022/08/31 06:02:58;;;;;;;2.10;1.20;;;13.10;99.90;;;;;;7394685;19;20015;-80
2022/08/31 06:05:24;;;;;;;1.33;1.20;;;13.30;99.90;;;;;;7392318;19;20051;-81
2022/08/31 06:07:50;;;;;;;2.13;1.30;;;13.30;99.90;;;;;;7392408;19;20022;-81
2022/08/31 06:10:17;;;;;;;2.17;1.50;;;13.30;99.90;;;;;;7388867;19;20018;-78
2022/08/31 06:12:45;;;;;;;2.40;1.30;;;13.20;99.90;;;;;;7388121;19;20026;-79
2022/08/31 06:15:12;;;;;;;1.25;1.10;;;13.30;99.90;;;;;;7386535;19;20024;-78
2022/08/31 06:17:38;;;;;;;3.15;1.20;;;13.30;99.90;;;;;;7396038;19;20015;-78
2022/08/31 06:20:05;;;;;;;2.67;1.30;;;13.40;99.90;;;;;;7393546;19;20030;-79
2022/08/31 06:22:36;;;;;;;2.55;1.30;;;13.40;99.90;;;;;;7395616;19;20094;-79
2022/08/31 06:25:04;;;;;;;1.60;1.20;;;13.50;99.90;;;;;;7391148;19;20039;-79
2022/08/31 06:27:30;;;;;;;1.48;1.38;;;13.60;99.90;;;;;;7393892;19;20099;-78
2022/08/31 06:29:57;;;;;;;1.15;1.05;;;13.70;99.90;;;;;;7392554;19;20018;-78
2022/08/31 06:32:25;;;;;;;1.70;1.00;;;13.80;99.90;;;;;;7398615;19;20015;-78
2022/08/31 06:34:50;;;;;;;4.15;1.23;;;13.90;99.90;;;;;;7400429;19;20015;-78
2022/08/31 06:37:16;;;;;;;2.72;1.20;;;14.00;99.90;;;;;;7396727;19;20015;-78
2022/08/31 06:39:42;;;;;;;4.55;1.17;;;14.10;99.90;;;;;;7384503;19;20504;-78
2022/08/31 06:42:08;;;;;;;1.75;0.90;;;14.20;99.90;;;;;;7401210;19;20038;-78
2022/08/31 06:44:34;;;;;;;2.75;1.40;;;14.40;99.90;;;;;;7388828;19;20014;-78
2022/08/31 06:47:00;;;;;;;1.60;1.02;;;14.40;99.90;;;;;;7399808;19;20023;-79
2022/08/31 06:49:26;;;;;;;2.25;1.10;;;14.50;99.90;;;;;;7388095;19;20014;-78
2022/08/31 06:51:51;;;;;;;3.05;1.00;;;14.50;99.90;;;;;;7395409;19;20355;-79
2022/08/31 06:54:18;;;;;;;2.08;1.15;;;14.60;99.90;;;;;;7396215;19;20015;-79
2022/08/31 06:56:45;;;;;;;2.20;0.93;;;14.70;99.90;;;;;;7398923;19;20021;-78
2022/08/31 06:59:11;;;;;;;3.95;0.90;;;14.80;99.90;;;;;;7399113;19;20022;-77
2022/08/31 07:01:38;;;;;;;2.10;0.80;;;14.90;99.90;;;;;;7400717;19;20515;-79
2022/08/31 07:04:06;;;;;;;0.88;0.55;;;15.00;99.90;;;;;;7391761;19;20018;-79
2022/08/31 07:06:41;;;;;;;2.15;0.80;;;15.30;99.90;;;;;;7393107;19;20014;-78
2022/08/31 07:09:16;;;;;;;2.15;1.25;;;15.60;99.90;;;;;;7395168;19;20014;-78
2022/08/31 07:11:51;;;;;;;2.85;1.25;;;16.00;99.90;;;;;;7392961;19;20535;-78
2022/08/31 07:14:22;;;;;;;3.15;0.95;;;16.10;99.90;;;;;;7398332;19;20507;-78
2022/08/31 07:16:50;;;;;;;1.55;0.88;;;16.70;99.90;;;;;;7402287;19;20022;-78
2022/08/31 07:19:16;;;;;;;3.67;1.20;;;17.50;99.90;;;;;;7395940;19;20368;-78
2022/08/31 07:21:47;;;;;;;2.50;1.08;;;17.60;99.90;;;;;;7395090;19;20018;-78
2022/08/31 07:24:16;;;;;;;1.27;0.70;;;18.00;99.90;;;;;;7395997;19;20015;-79
2022/08/31 07:26:53;;;;;;;2.30;0.80;;;18.10;99.90;;;;;;7397776;19;20074;-78
2022/08/31 07:29:21;;;;;;;4.97;0.90;;;18.00;99.90;;;;;;7396462;19;20011;-77
2022/08/31 07:31:47;;;;;;;3.00;0.73;;;18.50;99.90;;;;;;7396435;19;20015;-78
2022/08/31 07:34:25;;;;;;;2.05;0.77;;;19.60;99.90;;;;;;7397340;19;20022;-78
2022/08/31 07:42:29;;;;;;;3.45;0.60;;;22.00;99.90;;;;;;7397374;19;20019;-79
2022/08/31 07:44:58;;;;;;;1.03;0.40;;;22.40;99.90;;;;;;7397667;19;20504;-79
2022/08/31 07:47:27;;;;;;;6.28;0.60;;;22.30;99.90;;;;;;7397501;19;20022;-78
2022/08/31 07:49:54;;;;;;;1.30;0.40;;;22.40;99.90;;;;;;7396666;19;20579;-79
2022/08/31 07:52:28;;;;;;;1.48;0.50;;;22.50;99.90;;;;;;7399182;19;20073;-79
2022/08/31 07:55:06;;;;;;;2.90;0.50;;;22.70;99.90;;;;;;7396030;19;20337;-78
2022/08/31 07:57:42;;;;;;;2.03;0.45;;;22.90;99.90;;;;;;7397905;19;20015;-79
2022/08/31 08:00:18;;;;;;;0.68;0.40;;;22.80;99.80;;;;;;7396216;19;20029;-78
2022/08/31 08:02:47;;;;;;;1.13;0.50;;;22.80;99.50;;;;;;7394215;19;20022;-79
2022/08/31 08:05:19;;;;;;;3.38;0.55;;;23.10;99.20;;;;;;7391098;19;20018;-79
2022/08/31 08:07:48;;;;;;;3.40;0.55;;;23.00;99.00;;;;;;7399121;19;20329;-79
2022/08/31 08:10:17;;;;;;;1.80;0.38;;;23.30;99.20;;;;;;7395703;19;20022;-78
2022/08/31 08:12:52;;;;;;;1.13;0.50;;;23.50;99.00;;;;;;7397326;19;20027;-78
2022/08/31 08:15:18;;;;;;;0.70;0.40;;;23.50;98.40;;;;;;7394328;19;20098;-79
2022/08/31 08:17:45;;;;;;;1.55;0.38;;;23.50;98.70;;;;;;7395651;19;20077;-79
2022/08/31 08:20:11;;;;;;;1.25;0.43;;;23.10;98.70;;;;;;7395256;19;20504;-79
2022/08/31 08:22:38;;;;;;;0.77;0.50;;;22.70;99.00;;;;;;7394682;19;20121;-79
2022/08/31 08:25:05;;;;;;;1.02;0.40;;;22.20;99.80;;;;;;7395479;19;20026;-80
2022/08/31 08:27:32;;;;;;;1.02;0.30;;;21.40;99.90;;;;;;7398056;19;20031;-79
2022/08/31 08:29:58;;;;;;;1.23;0.30;;;20.90;99.90;;;;;;7395295;19;20519;-79
2022/08/31 08:32:24;;;;;;;2.30;0.63;;;20.50;99.90;;;;;;7398121;19;20041;-79
2022/08/31 08:34:51;;;;;;;1.90;0.50;;;20.30;99.90;;;;;;7397545;19;20014;-80
2022/08/31 08:37:17;;;;;;;1.35;0.47;;;20.20;99.90;;;;;;7394487;19;20011;-79
2022/08/31 08:39:43;;;;;;;0.73;0.30;;;20.10;99.90;;;;;;7393176;19;20495;-78
2022/08/31 08:42:14;;;;;;;0.93;0.40;;;20.00;99.90;;;;;;7397120;19;20046;-78
2022/08/31 08:44:42;;;;;;;2.47;0.30;;;20.10;99.90;;;;;;7395638;19;20010;-79
2022/08/31 08:47:19;;;;;;;0.90;0.40;;;20.10;99.90;;;;;;7392917;19;20019;-78
2022/08/31 08:49:51;;;;;;;0.65;0.40;;;20.30;99.90;;;;;;7395020;19;20014;-79
2022/08/31 08:52:35;;;;;;;0.57;0.40;;;20.30;99.90;;;;;;7397709;19;20044;-79
2022/08/31 08:55:05;;;;;;;1.30;0.40;;;20.30;99.90;;;;;;7393511;19;20018;-79
2022/08/31 08:57:38;;;;;;;2.60;0.50;;;20.20;99.90;;;;;;7393381;19;20014;-78
2022/08/31 09:00:09;;;;;;;2.08;0.50;;;20.30;99.90;;;;;;7393593;19;20386;-78
2022/08/31 09:02:54;;;;;;;1.30;0.50;;;20.30;99.90;;;;;;7392691;19;20014;-79
2022/08/31 09:05:39;;;;;;;1.23;0.60;;;20.30;99.90;;;;;;7396125;19;20022;-80
2022/08/31 09:08:15;;;;;;;2.90;0.50;;;20.40;99.90;;;;;;7395973;19;20010;-79
2022/08/31 09:10:50;;;;;;;1.63;0.55;;;20.40;99.90;;;;;;7391488;19;20491;-79
2022/08/31 09:13:42;;;;;;;1.80;0.50;;;20.40;99.90;;;;;;7395179;19;20014;-80
2022/08/31 09:16:46;;;;;;;1.45;0.40;;;20.50;99.90;;;;;;7397123;19;20022;-78
2022/08/31 09:19:16;;;;;;;2.03;0.68;;;20.50;99.90;;;;;;7395318;19;20082;-79
2022/08/31 09:21:46;;;;;;;1.77;0.40;;;20.70;99.90;;;;;;7392867;19;20007;-80
2022/08/31 09:24:18;;;;;;;1.45;0.43;;;20.90;99.90;;;;;;7392933;19;20014;-80
2022/08/31 09:26:56;;;;;;;4.32;0.47;;;21.00;99.90;;;;;;7390678;19;20363;-79
2022/08/31 09:29:23;;;;;;;3.50;0.70;;;21.10;99.50;;;;;;7394641;19;20073;-78
2022/08/31 09:32:05;;;;;;;1.85;0.50;;;21.10;99.60;;;;;;7393115;19;20014;-78
2022/08/31 09:34:40;;;;;;;1.52;0.43;;;21.10;99.90;;;;;;7394627;19;20125;-79
2022/08/31 09:37:20;;;;;;;1.95;0.45;;;21.20;99.90;;;;;;7393087;19;20031;-79
2022/08/31 09:39:48;;;;;;;1.65;0.40;;;21.20;99.30;;;;;;7396162;19;20531;-79
2022/08/31 09:42:34;;;;;;;0.55;0.30;;;21.40;99.90;;;;;;7395641;19;20026;-78
2022/08/31 09:45:08;;;;;;;2.67;0.50;;;21.50;99.80;;;;;;7394443;19;20066;-79
2022/08/31 09:47:52;;;;;;;2.03;0.40;;;21.60;99.20;;;;;;7391870;19;20038;-79
2022/08/31 09:50:30;;;;;;;1.70;0.30;;;21.60;99.00;;;;;;7391391;19;20011;-79
2022/08/31 09:56:04;;;;;;;0.95;0.30;;;22.00;98.90;;;;;;7392696;19;20381;-78
2022/08/31 09:58:32;;;;;;;2.05;0.50;;;22.10;98.80;;;;;;7391695;19;20007;-79
2022/08/31 10:01:11;;;;;;;2.03;0.40;;;22.00;97.90;;;;;;7399402;19;20510;-80
2022/08/31 10:03:43;;;;;;;1.60;0.35;;;22.10;98.10;;;;;;7400188;19;20034;-79
2022/08/31 10:06:40;;;;;;;1.27;0.40;;;22.00;98.10;;;;;;7402432;19;20041;-79
2022/08/31 10:09:16;;;;;;;1.02;0.30;;;22.10;97.80;;;;;;7403883;19;20059;-78
2022/08/31 10:11:46;;;;;;;0.90;0.40;;;22.20;97.80;;;;;;7397934;19;20022;-79
2022/08/31 10:14:43;;;;;;;1.30;0.30;;;22.30;97.20;;;;;;7399576;19;20074;-79
2022/08/31 10:17:17;;;;;;;1.13;0.30;;;22.20;96.60;;;;;;7402831;19;20077;-80
2022/08/31 10:20:15;;;;;;;0.63;0.40;;;22.20;96.90;;;;;;7392194;19;20025;-79
2022/08/31 10:23:05;;;;;;;1.17;0.38;;;22.40;96.70;;;;;;7399401;19;20090;-79
2022/08/31 10:25:39;;;;;;;0.90;0.50;;;22.40;96.80;;;;;;7389720;19;20040;-79
2022/08/31 10:28:15;;;;;;;1.40;0.50;;;22.50;96.60;;;;;;7395990;19;20007;-81
2022/08/31 10:30:51;;;;;;;2.15;0.30;;;22.60;96.20;;;;;;7390888;19;20438;-82
2022/08/31 10:33:22;;;;;;;1.77;0.50;;;22.70;96.30;;;;;;7394701;19;20061;-82
2022/08/31 10:35:59;;;;;;;1.17;0.38;;;22.70;95.90;;;;;;7400990;19;20010;-82
2022/08/31 10:38:37;;;;;;;0.70;0.50;;;22.60;96.20;;;;;;7398185;19;20082;-79
2022/08/31 10:41:15;;;;;;;1.05;0.55;;;22.60;95.60;;;;;;7400954;19;20020;-82
2022/08/31 10:44:22;;;;;;;1.00;0.40;;;22.50;96.10;;;;;;7398803;19;20591;-84
2022/08/31 10:46:53;;;;;;;1.25;0.57;;;22.50;96.30;;;;;;7395288;19;20019;-81
2022/08/31 10:49:22;;;;;;;4.70;0.45;;;22.50;95.70;;;;;;7397727;19;20055;-82
2022/08/31 10:52:08;;;;;;;0.90;0.22;;;22.60;96.00;;;;;;7395813;19;20498;-82
2022/08/31 10:54:53;;;;;;;1.23;0.40;;;22.70;95.10;;;;;;7399154;19;20019;-82
2022/08/31 10:57:51;;;;;;;0.30;0.20;;;22.80;94.90;;;;;;7401435;19;20011;-82
2022/08/31 11:00:44;;;;;;;1.77;0.47;;;22.80;95.20;;;;;;7398844;19;20025;-82
2022/08/31 11:03:58;;;;;;;1.50;0.70;;;22.80;94.10;;;;;;7400837;19;20063;-82
2022/08/31 11:06:35;;;;;;;2.60;0.50;;;22.80;94.90;;;;;;7387002;19;20026;-82
2022/08/31 11:09:04;;;;;;;0.57;0.50;;;22.90;95.40;;;;;;7393217;19;20011;-82
2022/08/31 11:11:46;;;;;;;1.83;0.38;;;22.90;95.10;;;;;;7392052;19;20562;-82
2022/08/31 11:14:39;;;;;;;1.75;0.40;;;23.00;95.20;;;;;;7399673;19;20015;-82
2022/08/31 11:17:26;;;;;;;;;;;23.10;94.60;;;;;;7396483;19;20029;-83
2022/08/31 11:20:05;;;;;;;1.63;0.50;;;23.20;94.80;;;;;;7399676;19;20516;-81
2022/08/31 11:22:37;;;;;;;1.73;0.40;;;23.10;94.60;;;;;;7397104;19;20021;-82
2022/08/31 11:25:37;;;;;;;17.25;1.00;;;23.10;94.40;;;;;;7399220;19;20026;-82
2022/08/31 11:28:27;;;;;;;2.20;0.30;;;23.20;93.70;;;;;;7395170;19;20109;-83
2022/08/31 11:30:55;;;;;;;0.52;0.30;;;23.10;92.70;;;;;;7395234;19;20018;-82
2022/08/31 11:33:26;;;;;;;2.92;0.57;;;23.10;93.30;;;;;;7392818;19;20022;-83
2022/08/31 11:39:11;;;;;;;3.97;0.70;;;23.00;93.70;;;;;;7397945;19;20487;-82
2022/08/31 11:41:46;;;;;;;3.35;0.47;;;23.00;94.30;;;;;;7397483;19;20050;-82
2022/08/31 11:44:35;;;;;;;1.75;1.30;;;23.10;94.10;;;;;;7398186;19;20021;-82
2022/08/31 11:47:25;;;;;;;1.77;0.60;;;23.20;93.50;;;;;;7396944;19;20013;-82
2022/08/31 11:49:54;;;;;;;1.00;0.45;;;23.20;93.20;;;;;;7393750;19;20022;-82
2022/08/31 11:52:30;;;;;;;0.57;0.30;;;23.20;93.20;;;;;;7399125;19;20041;-82
2022/08/31 11:55:28;;;;;;;2.35;0.40;;;23.20;93.70;;;;;;7398280;19;20412;-82
2022/08/31 11:58:10;;;;;;;1.23;0.60;;;23.30;93.80;;;;;;7396805;19;20019;-81
2022/08/31 12:00:46;;;;;;;0.75;0.43;;;23.20;92.50;;;;;;7397180;19;20038;-81
2022/08/31 12:03:42;;;;;;;1.33;0.43;;;23.20;92.80;;;;;;7399305;19;20023;-81
2022/08/31 12:06:36;;;;;;;0.95;0.30;;;23.30;93.20;;;;;;7399065;19;20010;-81
2022/08/31 12:09:39;;;;;;;1.83;0.47;;;23.40;93.20;;;;;;7399438;19;20031;-82
2022/08/31 12:12:28;;;;;;;1.15;0.40;;;23.40;93.00;;;;;;7396720;19;20483;-82
2022/08/31 12:15:12;;;;;;;1.70;0.40;;;23.40;92.70;;;;;;7394052;19;20018;-82
2022/08/31 12:18:04;;;;;;;1.23;0.50;;;23.40;92.60;;;;;;7397017;19;20018;-82
2022/08/31 12:23:41;;;;;;;1.27;0.50;;;23.60;93.40;;;;;;7395219;19;20011;-82
2022/08/31 12:26:26;;;;;;;0.50;0.40;;;23.60;92.20;;;;;;7393402;19;20468;-83
2022/08/31 12:29:08;;;;;;;0.90;0.40;;;23.60;92.30;;;;;;7398481;19;20018;-83
2022/08/31 12:31:38;;;;;;;3.25;0.60;;;23.60;92.80;;;;;;7391232;19;20015;-82
2022/08/31 12:34:16;;;;;;;0.75;0.40;;;23.70;92.20;;;;;;7393633;19;20015;-82
2022/08/31 12:36:42;;;;;;;0.63;0.52;;;23.60;91.80;;;;;;7395960;19;20025;-83
2022/08/31 12:39:20;;;;;;;0.73;0.40;;;23.50;92.20;;;;;;7394816;19;20037;-82
2022/08/31 12:41:52;;;;;;;0.80;0.35;;;23.50;92.30;;;;;;7396187;19;20056;-81
2022/08/31 12:44:36;;;;;;;2.20;0.40;;;23.60;92.50;;;;;;7395851;19;20022;-83
2022/08/31 12:47:21;;;;;;;3.70;0.30;;;23.60;92.40;;;;;;7393563;19;20471;-81
2022/08/31 12:50:16;;;;;;;0.55;0.35;;;23.60;92.90;;;;;;7396231;19;20018;-82
2022/08/31 12:53:04;;;;;;;3.30;0.98;;;23.70;93.40;;;;;;7393334;19;20010;-82
2022/08/31 12:55:42;;;;;;;1.75;0.40;;;23.80;93.20;;;;;;7394464;19;20421;-82
2022/08/31 12:58:35;;;;;;;2.15;0.57;;;23.90;92.90;;;;;;7393967;19;20364;-82
2022/08/31 13:01:11;;;;;;;0.90;0.32;;;23.90;92.00;;;;;;7395432;19;20010;-82
2022/08/31 13:03:47;;;;;;;2.10;0.40;;;23.80;91.40;;;;;;7396678;19;20488;-81
2022/08/31 13:06:26;;;;;;;1.13;0.35;;;23.60;92.20;;;;;;7394332;19;20091;-82
2022/08/31 13:08:53;;;;;;;2.38;0.70;;;23.60;92.20;;;;;;7393974;19;20022;-82
2022/08/31 13:11:28;;;;;;;1.02;0.40;;;23.70;92.50;;;;;;7394588;19;20019;-82
2022/08/31 13:14:27;;;;;;;2.33;0.50;;;23.70;92.30;;;;;;7391945;19;20508;-82
2022/08/31 13:17:20;;;;;;;2.78;0.63;;;23.80;92.50;;;;;;7395082;19;20082;-81
2022/08/31 13:19:50;;;;;;;;;;;23.80;92.80;;;;;;7393558;19;20029;-83
2022/08/31 13:22:30;;;;;;;1.85;0.50;;;23.80;92.30;;;;;;7392931;19;20398;-82
2022/08/31 13:25:12;;;;;;;1.02;0.30;;;23.80;92.00;;;;;;7395723;19;20494;-81
2022/08/31 13:27:48;;;;;;;0.70;0.40;;;23.70;92.40;;;;;;7397742;19;20022;-82
2022/08/31 13:30:17;;;;;;;0.93;0.50;;;23.80;92.60;;;;;;7395477;19;20090;-81
2022/08/31 13:32:48;;;;;;;0.60;0.30;;;23.80;91.90;;;;;;7392034;19;20011;-81